Terminal Aerodrome Forecast
Issued by NWS Tulsa, OK

Home | Current Version | Previous Version | Text Only | Print | Product List | Glossary On
Versions: 1 2 3 4 5 6 7 8 9 10 11 12 13 14
000
FTUS44 KTSA 220731 AAA
TAFFSM
TAF AMD
KFSM 220731Z 2208/2306 VRB04KT 2SM TSRA BKN007 OVC012CB
     FM220900 VRB05KT 5SM BR VCSH OVC006
     FM221100 32005KT P6SM BKN008 OVC015
     FM221900 30006KT P6SM OVC015=

USA.gov is the U.S. government's official web portal to all federal, state and local government web resources and services.